Search for airport 
image banner adimage banner adimage banner ad
image banner ad

02PN - Peco Berwyn

Located in Berwyn, United States

ICAO - 02PN, IATA -

Data provided by Airmate  

General information

Coordinates: N40°3'32" W75°27'41"
Elevation is 278 feet MSL.
Magnetic variation is -11° East
View others Airports in Pennsylvania

Operational data

Special qualification required
Current time UTC:
Current local time:
Weather at : KOQN - Brandywine ( 13 km )
METAR: KOQN 071215Z AUTO 07006KT 10SM CLR 12/M01 A2992 RMK AO2
View NOTAMs / SUP AIP / TFR affecting this airport [VIEW]
Communications frequencies: [VIEW]

Runways:

Airport contact information

Address: Berwyn United States

Satellite view of 02PN